createdAt,value
2023-04-18T00:00:43.286Z,13.02
2023-04-18T00:03:10.722Z,13.38
2023-04-18T00:05:38.540Z,12.93
2023-04-18T00:08:05.872Z,12.85
2023-04-18T00:10:33.217Z,12.45
2023-04-18T00:13:00.458Z,14.63
2023-04-18T00:15:29.177Z,12.57
2023-04-18T00:17:56.983Z,12.68
2023-04-18T00:20:27.318Z,13.30
2023-04-18T00:22:54.966Z,10.98
2023-04-18T00:25:22.342Z,11.68
2023-04-18T00:27:49.554Z,12.07
2023-04-18T00:30:18.182Z,11.98
2023-04-18T00:32:45.434Z,11.32
2023-04-18T00:35:12.761Z,9.75
2023-04-18T00:37:40.014Z,10.30
2023-04-18T00:40:09.153Z,12.27
2023-04-18T00:42:36.381Z,10.93
2023-04-18T00:45:03.687Z,10.90
2023-04-18T00:47:30.826Z,10.82
2023-04-18T00:49:58.086Z,11.55
2023-04-18T00:52:27.250Z,11.25
2023-04-18T00:54:55.380Z,10.30
2023-04-18T00:57:22.806Z,10.48
2023-04-18T00:59:51.040Z,10.88
2023-04-18T01:02:19.329Z,10.57
2023-04-18T01:04:47.147Z,10.20
2023-04-18T01:07:15.103Z,10.75
2023-04-18T01:09:42.577Z,9.68
2023-04-18T01:12:09.945Z,10.00
2023-04-18T01:14:37.019Z,9.57
2023-04-18T01:17:04.487Z,10.23
2023-04-18T01:19:31.769Z,10.75
2023-04-18T01:21:59.565Z,9.65
2023-04-18T01:24:29.811Z,9.68
2023-04-18T01:26:57.354Z,9.68
2023-04-18T01:29:24.546Z,8.75
2023-04-18T01:31:51.664Z,9.55
2023-04-18T01:34:19.190Z,8.48
2023-04-18T01:36:46.831Z,9.63
2023-04-18T01:39:14.576Z,8.73
2023-04-18T01:41:44.893Z,6.95
2023-04-18T01:44:12.294Z,8.38
2023-04-18T01:46:40.825Z,8.85
2023-04-18T01:49:09.867Z,9.15
2023-04-18T01:51:38.851Z,8.95
2023-04-18T01:54:06.097Z,9.20
2023-04-18T01:56:33.386Z,9.02
2023-04-18T01:59:01.724Z,8.10
2023-04-18T02:01:28.898Z,9.30
2023-04-18T02:03:58.249Z,9.50
2023-04-18T02:06:26.218Z,8.52
2023-04-18T02:08:53.729Z,9.02
2023-04-18T02:11:21.109Z,9.57
2023-04-18T02:13:49.018Z,8.48
2023-04-18T02:16:16.347Z,8.50
2023-04-18T02:18:44.414Z,8.68
2023-04-18T02:21:13.527Z,8.95
2023-04-18T02:23:40.718Z,8.52
2023-04-18T02:26:07.822Z,8.25
2023-04-18T02:28:37.121Z,7.95
2023-04-18T02:31:04.641Z,7.60
2023-04-18T02:33:34.552Z,9.88
2023-04-18T02:36:01.927Z,8.98
2023-04-18T02:38:29.153Z,8.93
2023-04-18T02:40:56.344Z,9.13
2023-04-18T02:43:23.576Z,8.95
2023-04-18T02:45:50.974Z,9.88
2023-04-18T02:48:18.202Z,9.85
2023-04-18T02:50:46.276Z,8.65
2023-04-18T02:53:13.526Z,9.35
2023-04-18T02:55:51.769Z,9.68
2023-04-18T02:58:20.167Z,9.60
2023-04-18T03:01:06.097Z,9.52
2023-04-18T03:03:53.612Z,9.98
2023-04-18T03:06:39.934Z,9.75
2023-04-18T03:09:07.343Z,9.75
2023-04-18T03:11:37.405Z,8.25
2023-04-18T03:14:05.793Z,10.48
2023-04-18T03:16:43.217Z,10.40
2023-04-18T03:19:13.770Z,10.63
2023-04-18T03:21:41.010Z,10.68
2023-04-18T03:24:10.226Z,8.07
2023-04-18T03:26:39.325Z,11.25
2023-04-18T03:29:06.730Z,9.85
2023-04-18T03:31:34.177Z,10.52
2023-04-18T03:34:01.372Z,9.40
2023-04-18T03:36:28.825Z,9.05
2023-04-18T03:38:56.277Z,10.50
2023-04-18T03:41:24.675Z,11.05
2023-04-18T03:43:52.776Z,9.82
2023-04-18T03:46:21.861Z,9.65
2023-04-18T03:48:51.799Z,9.82
2023-04-18T03:51:18.969Z,8.95
2023-04-18T03:53:47.146Z,10.15
2023-04-18T03:56:14.520Z,8.95
2023-04-18T03:58:50.650Z,9.63
2023-04-18T04:01:19.327Z,10.07
2023-04-18T04:03:46.810Z,9.63
2023-04-18T04:06:14.905Z,9.88
2023-04-18T04:08:42.083Z,9.32
2023-04-18T04:11:09.393Z,11.02
2023-04-18T04:13:36.684Z,11.57
2023-04-18T04:16:04.277Z,9.65
2023-04-18T04:18:32.090Z,7.13
2023-04-18T04:21:02.290Z,9.75
2023-04-18T04:23:46.230Z,10.82
2023-04-18T04:26:24.045Z,10.18
2023-04-18T04:28:59.021Z,8.68
2023-04-18T04:31:28.959Z,8.93
2023-04-18T04:33:57.316Z,8.98
2023-04-18T04:36:27.226Z,10.07
2023-04-18T04:38:56.485Z,10.85
2023-04-18T04:41:32.424Z,10.25
2023-04-18T04:44:01.742Z,11.20
2023-04-18T04:46:31.891Z,11.35
2023-04-18T04:49:01.173Z,10.93
2023-04-18T04:51:28.329Z,9.27
2023-04-18T04:53:56.201Z,9.80
2023-04-18T04:56:23.983Z,10.60
2023-04-18T04:58:51.610Z,9.88
2023-04-18T05:01:23.387Z,10.25
2023-04-18T05:03:52.819Z,10.48
2023-04-18T05:06:20.939Z,7.53
2023-04-18T05:08:48.624Z,8.68
2023-04-18T05:11:16.071Z,9.85
2023-04-18T05:13:43.324Z,11.25
2023-04-18T05:16:10.855Z,10.82
2023-04-18T05:18:39.353Z,6.90
2023-04-18T05:21:06.595Z,11.25
2023-04-18T05:23:37.603Z,8.50
2023-04-18T05:26:06.123Z,10.00
2023-04-18T05:28:33.655Z,9.70
2023-04-18T05:31:01.499Z,10.75
2023-04-18T05:33:29.665Z,10.38
2023-04-18T05:35:57.504Z,10.75
2023-04-18T05:38:25.224Z,8.98
2023-04-18T05:40:53.051Z,9.13
2023-04-18T05:43:20.369Z,10.32
2023-04-18T05:45:48.066Z,11.45
2023-04-18T05:48:15.539Z,10.25
2023-04-18T05:50:42.636Z,11.60
2023-04-18T05:53:09.981Z,9.77
2023-04-18T05:55:37.355Z,11.20
2023-04-18T05:58:04.453Z,10.95
2023-04-18T06:00:32.073Z,11.27
2023-04-18T06:02:59.579Z,9.85
2023-04-18T06:05:27.265Z,9.65
2023-04-18T06:07:55.130Z,10.75
2023-04-18T06:10:22.391Z,11.38
2023-04-18T06:12:49.713Z,9.90
2023-04-18T06:15:16.921Z,11.05
2023-04-18T06:17:44.573Z,9.60
2023-04-18T06:20:11.820Z,9.85
2023-04-18T06:22:39.164Z,10.43
2023-04-18T06:25:08.902Z,8.60
2023-04-18T06:27:36.712Z,10.20
2023-04-18T06:30:04.310Z,9.40
2023-04-18T06:32:31.562Z,11.38
2023-04-18T06:34:58.705Z,9.93
2023-04-18T06:37:25.929Z,9.85
2023-04-18T06:39:54.531Z,10.63
2023-04-18T06:42:22.529Z,12.27
2023-04-18T06:44:49.884Z,11.35
2023-04-18T06:47:17.108Z,9.35
2023-04-18T06:49:44.378Z,10.07
2023-04-18T06:52:11.601Z,9.55
2023-04-18T06:54:38.805Z,9.48
2023-04-18T06:57:06.227Z,9.85
2023-04-18T06:59:33.572Z,10.18
2023-04-18T07:02:00.833Z,9.98
2023-04-18T07:04:28.099Z,9.48
2023-04-18T07:06:55.539Z,9.43
2023-04-18T07:09:23.007Z,9.80
2023-04-18T07:11:51.750Z,8.43
2023-04-18T07:14:20.049Z,9.50
2023-04-18T07:16:47.284Z,10.05
2023-04-18T07:19:14.510Z,9.27
2023-04-18T07:21:43.734Z,9.65
2023-04-18T07:24:12.500Z,9.18
2023-04-18T07:26:39.929Z,7.72
2023-04-18T07:29:07.105Z,8.98
2023-04-18T07:31:36.237Z,9.52
2023-04-18T07:34:03.735Z,9.45
2023-04-18T07:36:31.515Z,9.25
2023-04-18T07:38:58.695Z,8.48
2023-04-18T07:41:25.980Z,7.60
2023-04-18T07:43:53.344Z,8.65
2023-04-18T07:46:21.677Z,8.45
2023-04-18T07:48:49.892Z,8.60
2023-04-18T07:51:17.222Z,7.85
2023-04-18T07:53:44.426Z,7.88
2023-04-18T07:56:15.347Z,8.80
2023-04-18T07:58:42.586Z,8.13
2023-04-18T08:01:14.210Z,8.25
2023-04-18T08:03:41.965Z,7.80
2023-04-18T08:06:10.525Z,7.65
2023-04-18T08:08:37.598Z,9.30
2023-04-18T08:11:04.661Z,7.13
2023-04-18T08:13:31.881Z,7.68
2023-04-18T08:16:00.000Z,7.60
2023-04-18T08:18:27.244Z,8.10
2023-04-18T08:20:54.449Z,7.25
2023-04-18T08:23:21.591Z,7.00
2023-04-18T08:25:48.727Z,6.72
2023-04-18T08:28:16.175Z,7.10
2023-04-18T08:30:44.130Z,6.97
2023-04-18T08:33:11.225Z,7.93
2023-04-18T08:35:38.313Z,6.63
2023-04-18T08:38:05.525Z,7.28
2023-04-18T08:40:32.745Z,7.05
2023-04-18T08:43:05.070Z,7.55
2023-04-18T08:45:33.259Z,5.95
2023-04-18T08:48:01.605Z,6.65
2023-04-18T08:50:29.016Z,6.80
2023-04-18T08:52:56.433Z,7.05
2023-04-18T08:55:23.806Z,6.07
2023-04-18T08:57:54.183Z,5.60
2023-04-18T09:00:22.657Z,5.43
2023-04-18T09:02:55.020Z,5.60
2023-04-18T09:05:22.602Z,5.55
2023-04-18T09:07:51.621Z,6.60
2023-04-18T09:10:29.934Z,6.72
2023-04-18T09:12:58.329Z,5.80
2023-04-18T09:15:29.240Z,6.15
2023-04-18T09:17:58.318Z,6.70
2023-04-18T09:20:30.744Z,5.85
2023-04-18T09:22:57.995Z,5.78
2023-04-18T09:25:30.641Z,5.93
2023-04-18T09:28:00.674Z,6.57
2023-04-18T09:30:37.844Z,6.40
2023-04-18T09:33:07.781Z,6.72
2023-04-18T09:35:35.160Z,6.25
2023-04-18T09:38:02.162Z,5.70
2023-04-18T09:40:29.528Z,5.97
2023-04-18T09:42:56.636Z,6.57
2023-04-18T09:45:24.294Z,6.30
2023-04-18T09:47:52.560Z,5.97
2023-04-18T09:50:20.775Z,6.05
2023-04-18T09:52:48.794Z,6.80
2023-04-18T09:55:17.560Z,6.68
2023-04-18T09:57:48.823Z,7.00
2023-04-18T10:00:26.681Z,6.38
2023-04-18T10:02:53.977Z,6.35
2023-04-18T10:05:24.019Z,7.15
2023-04-18T10:07:51.709Z,6.05
2023-04-18T10:10:19.045Z,6.40
2023-04-18T10:12:48.637Z,6.90
2023-04-18T10:15:17.181Z,7.07
2023-04-18T10:18:05.185Z,6.93
2023-04-18T10:20:34.681Z,6.75
2023-04-18T10:23:22.190Z,7.35
2023-04-18T10:25:49.675Z,6.85
2023-04-18T10:28:17.339Z,6.53
2023-04-18T10:30:45.484Z,6.35
2023-04-18T10:33:31.098Z,6.88
2023-04-18T10:36:00.596Z,5.55
2023-04-18T10:38:28.181Z,7.40
2023-04-18T10:41:14.997Z,7.45
2023-04-18T10:44:01.166Z,7.63
2023-04-18T10:46:32.540Z,7.15
2023-04-18T10:49:15.357Z,7.32
2023-04-18T10:51:46.967Z,6.50
2023-04-18T10:54:20.732Z,7.03
2023-04-18T10:56:54.889Z,6.43
2023-04-18T10:59:26.823Z,6.22
2023-04-18T11:01:59.960Z,6.55
2023-04-18T11:04:27.241Z,6.05
2023-04-18T11:07:00.293Z,5.97
2023-04-18T11:09:27.376Z,5.88
2023-04-18T11:12:08.885Z,5.82
2023-04-18T11:14:49.778Z,6.85
2023-04-18T11:17:17.899Z,6.65
2023-04-18T11:19:45.127Z,5.80
2023-04-18T11:22:13.145Z,6.70
2023-04-18T11:24:40.760Z,5.82
2023-04-18T11:27:11.904Z,6.57
2023-04-18T11:29:39.713Z,6.38
2023-04-18T11:32:08.414Z,7.00
2023-04-18T11:34:36.091Z,6.80
2023-04-18T11:37:07.666Z,6.55
2023-04-18T11:39:36.385Z,8.07
2023-04-18T11:42:03.797Z,8.07
2023-04-18T11:44:30.969Z,8.70
2023-04-18T11:46:58.301Z,8.23
2023-04-18T11:49:29.929Z,7.45
2023-04-18T11:51:57.164Z,9.00
2023-04-18T11:54:41.241Z,8.40
2023-04-18T11:57:29.385Z,9.35
2023-04-18T11:59:58.175Z,8.25
2023-04-18T12:02:38.589Z,8.32
2023-04-18T12:05:06.596Z,7.18
2023-04-18T12:07:47.849Z,8.98
2023-04-18T12:10:20.996Z,7.93
2023-04-18T12:12:57.514Z,7.40
2023-04-18T12:15:27.287Z,7.88
2023-04-18T12:18:05.522Z,7.65
2023-04-18T12:20:36.848Z,8.02
2023-04-18T12:23:04.638Z,7.97
2023-04-18T12:25:32.166Z,8.43
2023-04-18T12:28:00.966Z,8.73
2023-04-18T12:30:29.945Z,9.05
2023-04-18T12:33:01.973Z,9.57
2023-04-18T12:35:30.202Z,9.43
2023-04-18T12:37:58.385Z,8.55
2023-04-18T12:40:26.620Z,8.43
2023-04-18T12:42:54.755Z,8.68
2023-04-18T12:45:22.802Z,8.50
2023-04-18T12:47:52.236Z,6.82
2023-04-18T12:50:21.706Z,8.98
2023-04-18T12:52:49.149Z,10.07
2023-04-18T12:55:16.395Z,9.30
2023-04-18T12:57:43.691Z,10.82
2023-04-18T13:00:11.577Z,9.65
2023-04-18T13:02:40.240Z,9.75
2023-04-18T13:05:08.818Z,8.88
2023-04-18T13:07:40.631Z,9.30
2023-04-18T13:10:12.059Z,9.15
2023-04-18T13:12:39.863Z,9.95
2023-04-18T13:15:07.574Z,10.65
2023-04-18T13:17:36.818Z,10.48
2023-04-18T13:20:06.787Z,9.60
2023-04-18T13:22:34.385Z,10.27
2023-04-18T13:25:01.748Z,9.98
2023-04-18T13:27:29.067Z,10.43
2023-04-18T13:29:57.284Z,11.32
2023-04-18T13:32:24.869Z,11.07
2023-04-18T13:34:52.099Z,10.43
2023-04-18T13:37:19.509Z,11.30
2023-04-18T13:39:46.722Z,9.32
2023-04-18T13:42:15.910Z,10.57
2023-04-18T13:44:43.556Z,9.75
2023-04-18T13:47:10.865Z,9.65
2023-04-18T13:49:37.973Z,10.43
2023-04-18T13:52:05.532Z,10.02
2023-04-18T13:54:33.176Z,10.98
2023-04-18T13:57:04.488Z,12.07
2023-04-18T13:59:32.421Z,10.55
2023-04-18T14:01:59.820Z,10.70
2023-04-18T14:04:27.415Z,10.25
2023-04-18T14:06:54.843Z,9.82
2023-04-18T14:09:22.294Z,8.75
2023-04-18T14:11:51.147Z,9.93
2023-04-18T14:14:18.517Z,10.35
2023-04-18T14:16:46.128Z,10.07
2023-04-18T14:19:13.798Z,8.02
2023-04-18T14:21:41.397Z,8.70
2023-04-18T14:24:08.664Z,10.15
2023-04-18T14:26:35.695Z,9.82
2023-04-18T14:29:04.343Z,10.57
2023-04-18T14:31:31.573Z,8.40
2023-04-18T14:33:58.820Z,10.07
2023-04-18T14:36:27.169Z,11.35
2023-04-18T14:38:55.133Z,9.57
2023-04-18T14:41:22.453Z,9.93
2023-04-18T14:43:49.641Z,9.23
2023-04-18T14:46:17.172Z,10.95
2023-04-18T14:48:47.420Z,10.10
2023-04-18T14:51:17.577Z,9.00
2023-04-18T14:53:46.171Z,9.18
2023-04-18T14:56:14.701Z,9.05
2023-04-18T14:58:41.861Z,8.27
2023-04-18T15:01:09.015Z,8.65
2023-04-18T15:03:36.384Z,10.43
2023-04-18T15:06:03.761Z,10.50
2023-04-18T15:08:32.862Z,9.23
2023-04-18T15:11:01.096Z,9.43
2023-04-18T15:13:28.341Z,10.32
2023-04-18T15:15:56.943Z,10.00
2023-04-18T15:18:24.184Z,10.40
2023-04-18T15:20:51.828Z,9.38
2023-04-18T15:23:19.114Z,9.60
2023-04-18T15:25:46.569Z,9.13
2023-04-18T15:28:14.130Z,8.32
2023-04-18T15:30:41.134Z,9.20
2023-04-18T15:33:08.573Z,9.32
2023-04-18T15:35:36.121Z,9.43
2023-04-18T15:38:03.618Z,7.88
2023-04-18T15:40:32.960Z,9.23
2023-04-18T15:43:02.165Z,8.75
2023-04-18T15:45:29.577Z,8.32
2023-04-18T15:47:56.876Z,9.18
2023-04-18T15:50:24.511Z,9.10
2023-04-18T15:52:53.118Z,9.23
2023-04-18T15:55:52.074Z,9.20
2023-04-18T16:01:18.868Z,9.35
2023-04-18T16:04:00.490Z,9.90
2023-04-18T16:06:37.415Z,9.15
2023-04-18T16:09:06.568Z,9.57
2023-04-18T16:11:33.670Z,7.60
2023-04-18T16:14:00.821Z,8.88
2023-04-18T16:16:30.653Z,7.43
2023-04-18T16:19:08.155Z,9.68
2023-04-18T16:21:35.501Z,8.35
2023-04-18T16:24:02.670Z,7.68
2023-04-18T16:26:31.476Z,7.75
2023-04-18T16:28:58.637Z,8.55
2023-04-18T16:31:25.893Z,8.80
2023-04-18T16:33:53.776Z,7.05
2023-04-18T16:36:21.023Z,8.93
2023-04-18T16:38:48.219Z,9.85
2023-04-18T16:41:15.245Z,9.48
2023-04-18T16:43:42.600Z,9.07
2023-04-18T16:46:11.814Z,8.48
2023-04-18T16:48:39.114Z,8.68
2023-04-18T16:51:06.680Z,8.90
2023-04-18T16:53:34.227Z,7.30
2023-04-18T16:56:03.150Z,8.27
2023-04-18T16:58:30.608Z,9.00
2023-04-18T17:00:57.925Z,8.27
2023-04-18T17:03:25.368Z,9.23
2023-04-18T17:05:53.008Z,8.25
2023-04-18T17:08:20.216Z,8.40
2023-04-18T17:10:51.719Z,9.00
2023-04-18T17:13:19.312Z,7.65
2023-04-18T17:15:46.880Z,8.63
2023-04-18T17:18:14.176Z,8.32
2023-04-18T17:20:41.332Z,8.00
2023-04-18T17:23:08.754Z,8.57
2023-04-18T17:25:36.534Z,8.10
2023-04-18T17:28:03.859Z,6.30
2023-04-18T17:30:31.372Z,8.73
2023-04-18T17:32:58.821Z,8.25
2023-04-18T17:35:26.203Z,8.18
2023-04-18T17:37:53.483Z,8.68
2023-04-18T17:40:20.597Z,8.23
2023-04-18T17:42:50.386Z,8.52
2023-04-18T17:45:20.572Z,8.93
2023-04-18T17:47:49.653Z,9.02
2023-04-18T17:50:17.650Z,9.07
2023-04-18T17:52:46.531Z,8.63
2023-04-18T17:55:14.101Z,8.98
2023-04-18T17:57:41.623Z,8.05
2023-04-18T18:00:13.564Z,8.63
2023-04-18T18:02:42.515Z,8.13
2023-04-18T18:05:13.694Z,8.15
2023-04-18T18:07:43.145Z,8.85
2023-04-18T18:10:11.546Z,8.73
2023-04-18T18:12:39.863Z,10.18
2023-04-18T18:15:08.591Z,9.07
2023-04-18T18:17:36.581Z,9.32
2023-04-18T18:20:05.423Z,8.43
2023-04-18T18:22:32.628Z,9.90
2023-04-18T18:25:12.018Z,10.18
2023-04-18T18:27:39.408Z,9.45
2023-04-18T18:30:06.958Z,10.27
2023-04-18T18:32:34.192Z,9.35
2023-04-18T18:35:01.981Z,9.32
2023-04-18T18:37:29.162Z,10.00
2023-04-18T18:39:56.487Z,9.45
2023-04-18T18:42:23.855Z,9.55
2023-04-18T18:44:51.000Z,8.50
2023-04-18T18:47:19.840Z,8.65
2023-04-18T18:49:48.788Z,8.55
2023-04-18T18:52:16.074Z,9.35
2023-04-18T18:54:43.318Z,10.32
2023-04-18T18:57:10.606Z,9.10
2023-04-18T18:59:37.936Z,9.32
2023-04-18T19:02:05.944Z,8.63
2023-04-18T19:04:33.528Z,9.43
2023-04-18T19:07:00.723Z,9.50
2023-04-18T19:09:28.003Z,9.85
2023-04-18T19:11:55.325Z,10.07
2023-04-18T19:14:23.802Z,9.40
2023-04-18T19:16:51.250Z,10.00
2023-04-18T19:19:19.480Z,9.90
2023-04-18T19:21:46.711Z,8.90
2023-04-18T19:24:14.045Z,10.20
2023-04-18T19:26:41.795Z,9.35
2023-04-18T19:29:10.015Z,9.20
2023-04-18T19:31:37.647Z,9.68
2023-04-18T19:34:04.837Z,9.27
2023-04-18T19:36:32.150Z,8.57
2023-04-18T19:38:59.446Z,8.43
2023-04-18T19:41:26.586Z,7.55
2023-04-18T19:43:53.842Z,8.68
2023-04-18T19:46:21.258Z,8.20
2023-04-18T19:48:48.524Z,8.25
2023-04-18T19:51:15.751Z,8.48
2023-04-18T19:53:42.874Z,8.65
2023-04-18T19:56:11.453Z,8.23
2023-04-18T19:58:44.709Z,7.97
2023-04-18T20:01:37.834Z,8.70
2023-04-18T20:04:05.711Z,7.93
2023-04-18T20:06:33.096Z,8.27
2023-04-18T20:09:00.832Z,7.50
2023-04-18T20:11:28.165Z,8.23
2023-04-18T20:13:56.534Z,7.55
2023-04-18T20:16:23.733Z,7.28
2023-04-18T20:18:51.932Z,7.90
2023-04-18T20:21:20.939Z,7.22
2023-04-18T20:23:48.095Z,7.82
2023-04-18T20:26:15.246Z,8.35
2023-04-18T20:28:42.665Z,7.68
2023-04-18T20:31:12.267Z,6.13
2023-04-18T20:33:39.576Z,7.53
2023-04-18T20:36:07.472Z,6.85
2023-04-18T20:38:34.804Z,6.85
2023-04-18T20:41:02.006Z,7.40
2023-04-18T20:43:29.482Z,7.32
2023-04-18T20:45:57.930Z,6.65
2023-04-18T20:48:26.474Z,7.35
2023-04-18T20:50:54.040Z,6.78
2023-04-18T20:53:21.533Z,6.78
2023-04-18T20:55:49.183Z,7.60
2023-04-18T20:58:16.788Z,6.43
2023-04-18T21:00:44.988Z,7.90
2023-04-18T21:03:15.845Z,7.82
2023-04-18T21:05:44.259Z,5.50
2023-04-18T21:08:11.718Z,7.50
2023-04-18T21:10:39.610Z,6.18
2023-04-18T21:13:06.785Z,7.45
2023-04-18T21:15:35.195Z,7.72
2023-04-18T21:18:02.567Z,7.07
2023-04-18T21:20:29.931Z,7.38
2023-04-18T21:22:57.083Z,7.25
2023-04-18T21:25:24.331Z,7.40
2023-04-18T21:27:51.855Z,7.70
2023-04-18T21:30:19.230Z,7.20
2023-04-18T21:32:51.641Z,7.30
2023-04-18T21:35:24.805Z,7.03
2023-04-18T21:37:53.682Z,7.70
2023-04-18T21:40:21.079Z,7.18
2023-04-18T21:42:50.979Z,7.43
2023-04-18T21:45:18.340Z,5.60
2023-04-18T21:47:45.699Z,7.35
2023-04-18T21:50:13.183Z,7.13
2023-04-18T21:52:40.613Z,7.70
2023-04-18T21:55:08.046Z,6.65
2023-04-18T21:57:35.866Z,7.53
2023-04-18T22:00:03.230Z,6.63
2023-04-18T22:02:36.166Z,6.63
2023-04-18T22:05:03.548Z,7.25
2023-04-18T22:07:31.145Z,6.80
2023-04-18T22:10:00.096Z,7.57
2023-04-18T22:12:27.319Z,6.93
2023-04-18T22:14:54.887Z,6.65
2023-04-18T22:17:23.318Z,6.82
2023-04-18T22:19:50.759Z,6.32
2023-04-18T22:22:18.126Z,7.05
2023-04-18T22:24:47.572Z,7.10
2023-04-18T22:27:15.330Z,7.40
2023-04-18T22:29:42.675Z,6.95
2023-04-18T22:32:09.894Z,6.90
2023-04-18T22:34:37.157Z,6.93
2023-04-18T22:37:04.346Z,6.22
2023-04-18T22:39:31.566Z,6.13
2023-04-18T22:41:58.739Z,4.25
2023-04-18T22:44:25.904Z,6.63
2023-04-18T22:46:54.822Z,6.70
2023-04-18T22:49:22.283Z,6.60
2023-04-18T22:51:49.704Z,7.13
2023-04-18T22:54:17.039Z,6.70
2023-04-18T22:56:44.405Z,6.65
2023-04-18T22:59:11.591Z,6.40
2023-04-18T23:01:38.939Z,5.82
2023-04-18T23:04:06.463Z,7.00
2023-04-18T23:06:34.025Z,6.85
2023-04-18T23:09:01.127Z,6.93
2023-04-18T23:11:28.552Z,7.35
2023-04-18T23:13:55.686Z,7.00
2023-04-18T23:16:23.216Z,6.57
2023-04-18T23:18:50.577Z,7.32
2023-04-18T23:21:17.777Z,7.10
2023-04-18T23:23:44.938Z,7.63
2023-04-18T23:26:14.268Z,6.45
2023-04-18T23:28:44.316Z,6.88
2023-04-18T23:31:11.685Z,7.72
2023-04-18T23:33:38.863Z,7.80
2023-04-18T23:36:06.545Z,6.95
2023-04-18T23:38:33.264Z,7.82
2023-04-18T23:41:00.449Z,7.80
2023-04-18T23:43:27.847Z,6.90
2023-04-18T23:45:55.197Z,6.78
2023-04-18T23:48:22.531Z,7.85
2023-04-18T23:50:50.646Z,7.13
2023-04-18T23:53:17.720Z,7.80
2023-04-18T23:55:45.309Z,7.97
2023-04-18T23:58:12.759Z,7.00
